createdAt,value
2023-05-19T00:00:39.616Z,10.68
2023-05-19T00:01:40.394Z,10.77
2023-05-19T00:02:41.223Z,10.67
2023-05-19T00:03:41.171Z,10.69
2023-05-19T00:04:42.354Z,10.69
2023-05-19T00:05:42.976Z,10.75
2023-05-19T00:06:43.911Z,10.68
2023-05-19T00:07:44.198Z,10.71
2023-05-19T00:08:45.075Z,10.68
2023-05-19T00:09:45.366Z,10.61
2023-05-19T00:10:46.074Z,10.65
2023-05-19T00:11:46.308Z,10.59
2023-05-19T00:12:46.997Z,10.59
2023-05-19T00:13:47.414Z,10.65
2023-05-19T00:14:48.342Z,10.59
2023-05-19T00:15:49.164Z,10.67
2023-05-19T00:16:49.944Z,10.67
2023-05-19T00:17:50.132Z,10.69
2023-05-19T00:18:50.915Z,10.53
2023-05-19T00:19:51.928Z,10.58
2023-05-19T00:20:52.679Z,10.48
2023-05-19T00:21:53.235Z,10.59
2023-05-19T00:22:53.960Z,10.59
2023-05-19T00:23:54.666Z,10.61
2023-05-19T00:24:55.767Z,10.65
2023-05-19T00:25:56.471Z,10.64
2023-05-19T00:26:56.716Z,10.61
2023-05-19T00:27:57.130Z,10.61
2023-05-19T00:28:57.482Z,10.53
2023-05-19T00:29:58.918Z,10.48
2023-05-19T00:30:59.406Z,10.57
2023-05-19T00:31:59.810Z,10.48
2023-05-19T00:33:00.881Z,10.58
2023-05-19T00:34:00.636Z,10.53
2023-05-19T00:35:01.997Z,10.48
2023-05-19T00:36:02.758Z,10.46
2023-05-19T00:37:03.663Z,10.58
2023-05-19T00:38:04.528Z,10.58
2023-05-19T00:39:05.015Z,10.46
2023-05-19T00:40:05.908Z,10.49
2023-05-19T00:41:06.679Z,10.57
2023-05-19T00:42:07.066Z,10.46
2023-05-19T00:43:07.552Z,10.51
2023-05-19T00:44:08.233Z,10.58
2023-05-19T00:45:08.833Z,10.48
2023-05-19T00:46:09.670Z,10.49
2023-05-19T00:47:10.434Z,10.51
2023-05-19T00:48:11.308Z,10.57
2023-05-19T00:49:11.817Z,10.49
2023-05-19T00:50:12.378Z,10.53
2023-05-19T00:51:13.271Z,10.48
2023-05-19T00:52:13.548Z,10.51
2023-05-19T00:53:13.846Z,10.39
2023-05-19T00:54:14.348Z,10.51
2023-05-19T00:55:15.456Z,10.38
2023-05-19T00:56:16.042Z,10.36
2023-05-19T00:57:16.138Z,10.41
2023-05-19T00:58:16.422Z,10.41
2023-05-19T00:59:17.366Z,10.28
2023-05-19T01:00:18.020Z,10.33
2023-05-19T01:01:19.068Z,10.25
2023-05-19T01:02:19.693Z,10.3
2023-05-19T01:03:19.742Z,10.24
2023-05-19T01:04:20.508Z,10.33
2023-05-19T01:05:21.278Z,10.33
2023-05-19T01:06:21.392Z,10.33
2023-05-19T01:07:21.668Z,10.23
2023-05-19T01:08:22.409Z,10.31
2023-05-19T01:09:22.783Z,10.23
2023-05-19T01:10:23.653Z,10.25
2023-05-19T01:11:24.431Z,10.28
2023-05-19T01:12:24.994Z,10.33
2023-05-19T01:13:25.457Z,10.27
2023-05-19T01:14:26.125Z,10.25
2023-05-19T01:15:27.041Z,10.3
2023-05-19T01:16:27.649Z,10.39
2023-05-19T01:17:28.692Z,10.41
2023-05-19T01:18:29.043Z,10.38
2023-05-19T01:19:29.812Z,10.38
2023-05-19T01:20:30.993Z,10.31
2023-05-19T01:21:30.859Z,10.3
2023-05-19T01:22:31.472Z,10.3
2023-05-19T01:23:32.166Z,10.27
2023-05-19T01:24:32.056Z,10.25
2023-05-19T01:25:32.541Z,10.24
2023-05-19T01:26:33.321Z,10.28
2023-05-19T01:27:33.989Z,10.3
2023-05-19T01:28:34.280Z,10.31
2023-05-19T01:29:35.276Z,10.21
2023-05-19T01:30:36.690Z,10.28
2023-05-19T01:31:37.483Z,10.21
2023-05-19T01:32:38.356Z,10.24
2023-05-19T01:33:38.426Z,10.25
2023-05-19T01:34:39.112Z,10.24
2023-05-19T01:35:39.437Z,10.27
2023-05-19T01:36:40.581Z,10.12
2023-05-19T01:37:41.476Z,10.12
2023-05-19T01:38:42.175Z,10.18
2023-05-19T01:39:43.071Z,10.1
2023-05-19T01:40:44.153Z,10.15
2023-05-19T01:41:44.698Z,10.1
2023-05-19T01:42:45.586Z,10.09
2023-05-19T01:43:45.752Z,10.13
2023-05-19T01:44:46.228Z,10.15
2023-05-19T01:45:47.853Z,10.2
2023-05-19T01:46:48.027Z,10.13
2023-05-19T01:47:48.997Z,10.21
2023-05-19T01:48:49.214Z,10.12
2023-05-19T01:49:49.713Z,10.15
2023-05-19T01:50:50.660Z,10.21
2023-05-19T01:51:50.407Z,10.15
2023-05-19T01:52:51.055Z,10.12
2023-05-19T01:53:51.541Z,10.12
2023-05-19T01:54:51.877Z,10.12
2023-05-19T01:55:52.539Z,10.15
2023-05-19T01:56:53.657Z,10.15
2023-05-19T01:57:53.914Z,10.1
2023-05-19T01:58:54.385Z,10.12
2023-05-19T01:59:54.863Z,10.15
2023-05-19T02:00:55.835Z,10.12
2023-05-19T02:01:56.235Z,10.09
2023-05-19T02:02:57.025Z,10.06
2023-05-19T02:03:57.247Z,10.05
2023-05-19T02:04:58.025Z,10.07
2023-05-19T02:05:58.942Z,10.07
2023-05-19T02:06:58.674Z,10.07
2023-05-19T02:07:59.361Z,10.09
2023-05-19T02:09:00.241Z,9.95
2023-05-19T02:10:00.714Z,9.99
2023-05-19T02:11:01.006Z,9.99
2023-05-19T02:12:01.926Z,9.94
2023-05-19T02:13:03.140Z,9.91
2023-05-19T02:14:03.686Z,9.99
2023-05-19T02:15:04.658Z,9.84
2023-05-19T02:16:05.340Z,9.87
2023-05-19T02:17:05.477Z,9.87
2023-05-19T02:18:06.616Z,9.85
2023-05-19T02:19:06.323Z,9.88
2023-05-19T02:20:07.061Z,9.87
2023-05-19T02:21:08.136Z,9.88
2023-05-19T02:22:08.093Z,9.8
2023-05-19T02:23:08.485Z,9.87
2023-05-19T02:24:09.146Z,9.72
2023-05-19T02:25:09.647Z,9.63
2023-05-19T02:26:10.134Z,9.74
2023-05-19T02:27:11.064Z,9.81
2023-05-19T02:28:11.785Z,9.63
2023-05-19T02:29:12.652Z,9.64
2023-05-19T02:30:13.548Z,9.66
2023-05-19T02:31:14.683Z,9.55
2023-05-19T02:32:15.378Z,9.52
2023-05-19T02:33:15.886Z,9.52
2023-05-19T02:34:16.208Z,9.51
2023-05-19T02:35:16.734Z,9.49
2023-05-19T02:36:17.475Z,9.48
2023-05-19T02:37:17.165Z,9.42
2023-05-19T02:38:17.832Z,9.37
2023-05-19T02:39:18.552Z,9.36
2023-05-19T02:40:19.074Z,9.36
2023-05-19T02:41:19.551Z,9.21
2023-05-19T02:42:20.272Z,9.26
2023-05-19T02:43:21.479Z,9.31
2023-05-19T02:44:22.190Z,9.27
2023-05-19T02:45:23.074Z,9.27
2023-05-19T02:46:23.900Z,9.26
2023-05-19T02:47:24.755Z,9.19
2023-05-19T02:48:25.572Z,9.18
2023-05-19T02:49:26.633Z,9.11
2023-05-19T02:50:27.357Z,9.12
2023-05-19T02:51:28.205Z,9.11
2023-05-19T02:52:29.131Z,9.03
2023-05-19T02:53:29.391Z,9.05
2023-05-19T02:54:30.093Z,9.11
2023-05-19T02:55:30.982Z,8.96
2023-05-19T02:56:31.882Z,9.03
2023-05-19T02:57:32.685Z,9.08
2023-05-19T02:58:33.356Z,9.08
2023-05-19T02:59:33.837Z,8.96
2023-05-19T03:00:35.062Z,9.09
2023-05-19T03:01:35.765Z,9.03
2023-05-19T03:02:35.938Z,9.02
2023-05-19T03:03:36.277Z,9.03
2023-05-19T03:04:36.297Z,9.11
2023-05-19T03:05:36.789Z,9.08
2023-05-19T03:06:37.376Z,8.99
2023-05-19T03:07:38.510Z,9.13
2023-05-19T03:08:42.383Z,9.13
2023-05-19T03:09:38.977Z,9.16
2023-05-19T03:10:39.758Z,9.12
2023-05-19T03:11:40.028Z,9.16
2023-05-19T03:12:40.555Z,9.13
2023-05-19T03:13:41.768Z,9.11
2023-05-19T03:14:42.449Z,9.11
2023-05-19T03:15:43.204Z,9.11
2023-05-19T03:16:44.358Z,9.13
2023-05-19T03:17:44.499Z,9.21
2023-05-19T03:18:44.982Z,9.21
2023-05-19T03:19:45.054Z,9.24
2023-05-19T03:20:47.319Z,9.18
2023-05-19T03:22:46.659Z,9.3
2023-05-19T03:23:48.039Z,9.26
2023-05-19T03:24:48.346Z,9.26
2023-05-19T03:25:48.842Z,9.27
2023-05-19T03:26:49.353Z,9.3
2023-05-19T03:27:50.283Z,9.31
2023-05-19T03:28:51.169Z,9.36
2023-05-19T03:29:51.858Z,9.36
2023-05-19T03:30:52.376Z,9.36
2023-05-19T03:31:53.281Z,9.37
2023-05-19T03:32:54.401Z,9.3
2023-05-19T03:33:55.248Z,9.34
2023-05-19T03:34:54.956Z,9.29
2023-05-19T03:35:55.667Z,9.3
2023-05-19T03:36:56.592Z,9.33
2023-05-19T03:37:57.114Z,9.31
2023-05-19T03:38:57.787Z,9.34
2023-05-19T03:39:58.480Z,9.31
2023-05-19T03:40:59.237Z,9.34
2023-05-19T03:41:59.739Z,9.36
2023-05-19T03:43:00.270Z,9.39
2023-05-19T03:44:01.075Z,9.34
2023-05-19T03:45:01.603Z,9.47
2023-05-19T03:46:02.811Z,9.45
2023-05-19T03:47:03.461Z,9.51
2023-05-19T03:48:04.040Z,9.47
2023-05-19T03:49:05.057Z,9.55
2023-05-19T03:50:05.554Z,9.49
2023-05-19T03:51:06.260Z,9.52
2023-05-19T03:52:07.194Z,9.49
2023-05-19T03:53:07.214Z,9.55
2023-05-19T03:54:07.783Z,9.52
2023-05-19T03:55:08.294Z,9.54
2023-05-19T03:56:08.788Z,9.51
2023-05-19T03:57:09.887Z,9.62
2023-05-19T03:58:10.695Z,9.56
2023-05-19T03:59:11.171Z,9.59
2023-05-19T04:00:11.765Z,9.56
2023-05-19T04:01:12.453Z,9.67
2023-05-19T04:02:14.189Z,9.62
2023-05-19T04:05:14.249Z,9.66
2023-05-19T04:06:15.208Z,9.66
2023-05-19T04:07:15.932Z,9.63
2023-05-19T04:08:16.670Z,9.66
2023-05-19T04:09:17.367Z,9.76
2023-05-19T04:10:17.844Z,9.73
2023-05-19T04:11:18.531Z,9.74
2023-05-19T04:12:19.203Z,9.63
2023-05-19T04:13:19.949Z,9.63
2023-05-19T04:14:20.997Z,9.62
2023-05-19T04:15:21.885Z,9.59
2023-05-19T04:16:22.870Z,9.74
2023-05-19T04:17:23.572Z,9.72
2023-05-19T04:18:23.775Z,9.8
2023-05-19T04:19:24.041Z,9.72
2023-05-19T04:20:24.151Z,9.77
2023-05-19T04:21:24.519Z,9.73
2023-05-19T04:22:25.434Z,9.72
2023-05-19T04:23:26.186Z,9.7
2023-05-19T04:24:26.785Z,9.72
2023-05-19T04:25:27.670Z,9.88
2023-05-19T04:26:28.337Z,9.85
2023-05-19T04:27:29.053Z,9.76
2023-05-19T04:28:29.952Z,9.7
2023-05-19T04:29:30.868Z,9.85
2023-05-19T04:30:32.442Z,9.74
2023-05-19T04:31:32.581Z,9.73
2023-05-19T04:32:32.957Z,9.74
2023-05-19T04:33:33.512Z,9.74
2023-05-19T04:34:34.068Z,9.8
2023-05-19T04:35:34.741Z,9.76
2023-05-19T04:36:35.486Z,9.7
2023-05-19T04:37:36.422Z,9.73
2023-05-19T04:38:37.142Z,9.76
2023-05-19T04:39:38.047Z,9.85
2023-05-19T04:40:38.841Z,9.8
2023-05-19T04:41:39.309Z,9.84
2023-05-19T04:42:40.026Z,9.87
2023-05-19T04:43:40.738Z,9.81
2023-05-19T04:44:41.740Z,9.84
2023-05-19T04:45:42.761Z,9.84
2023-05-19T04:46:42.625Z,9.7
2023-05-19T04:47:43.467Z,9.84
2023-05-19T04:48:44.110Z,9.84
2023-05-19T04:49:44.070Z,9.85
2023-05-19T04:50:44.563Z,9.85
2023-05-19T04:51:45.315Z,9.77
2023-05-19T04:52:45.392Z,9.74
2023-05-19T04:53:46.293Z,9.74
2023-05-19T04:54:47.140Z,9.7
2023-05-19T04:55:47.629Z,9.72
2023-05-19T04:56:48.109Z,9.72
2023-05-19T04:57:48.764Z,9.77
2023-05-19T04:58:49.479Z,9.73
2023-05-19T04:59:49.977Z,9.72
2023-05-19T05:00:50.533Z,9.74
2023-05-19T05:01:51.472Z,9.76
2023-05-19T05:02:51.821Z,9.73
2023-05-19T05:03:51.650Z,9.7
2023-05-19T05:04:51.820Z,9.74
2023-05-19T05:05:52.538Z,9.74
2023-05-19T05:06:53.053Z,9.74
2023-05-19T05:07:53.876Z,9.72
2023-05-19T05:08:54.535Z,9.7
2023-05-19T05:09:55.271Z,9.73
2023-05-19T05:10:56.178Z,9.82
2023-05-19T05:11:56.699Z,9.87
2023-05-19T05:12:57.607Z,9.84
2023-05-19T05:13:57.703Z,9.92
2023-05-19T05:14:58.046Z,9.99
2023-05-19T05:15:58.790Z,10.07
2023-05-19T05:16:59.218Z,10.09
2023-05-19T05:18:00.037Z,10.18
2023-05-19T05:19:00.597Z,10.12
2023-05-19T05:20:01.262Z,10.24
2023-05-19T05:21:01.984Z,10.23
2023-05-19T05:22:02.676Z,10.23
2023-05-19T05:23:03.625Z,10.27
2023-05-19T05:24:03.779Z,10.24
2023-05-19T05:25:04.159Z,10.21
2023-05-19T05:26:04.877Z,10.23
2023-05-19T05:27:05.410Z,10.25
2023-05-19T05:28:05.702Z,10.3
2023-05-19T05:29:06.413Z,10.31
2023-05-19T05:30:07.129Z,10.41
2023-05-19T05:31:07.876Z,10.43
2023-05-19T05:32:08.530Z,10.48
2023-05-19T05:33:10.203Z,10.58
2023-05-19T05:34:09.550Z,10.58
2023-05-19T05:35:10.627Z,10.68
2023-05-19T05:36:11.124Z,10.62
2023-05-19T05:37:15.262Z,10.64
2023-05-19T05:38:12.356Z,10.57
2023-05-19T05:39:13.300Z,10.59
2023-05-19T05:40:14.223Z,10.61
2023-05-19T05:41:15.036Z,10.48
2023-05-19T05:42:15.961Z,10.57
2023-05-19T05:43:16.740Z,10.51
2023-05-19T05:44:17.737Z,10.57
2023-05-19T05:45:18.072Z,10.42
2023-05-19T05:46:18.496Z,10.42
2023-05-19T05:47:19.267Z,10.49
2023-05-19T05:48:20.246Z,10.46
2023-05-19T05:49:20.374Z,10.58
2023-05-19T05:50:21.114Z,10.62
2023-05-19T05:51:21.421Z,10.65
2023-05-19T05:52:22.357Z,10.75
2023-05-19T05:53:23.344Z,10.62
2023-05-19T05:54:23.254Z,10.72
2023-05-19T05:55:23.461Z,10.77
2023-05-19T05:56:24.650Z,10.72
2023-05-19T05:57:25.388Z,10.79
2023-05-19T05:58:26.165Z,10.76
2023-05-19T05:59:26.598Z,10.89
2023-05-19T06:00:27.726Z,10.83
2023-05-19T06:01:27.946Z,10.82
2023-05-19T06:02:28.101Z,10.89
2023-05-19T06:03:28.588Z,10.87
2023-05-19T06:04:28.278Z,10.89
2023-05-19T06:05:28.722Z,10.87
2023-05-19T06:06:29.814Z,10.92
2023-05-19T06:07:30.517Z,10.9
2023-05-19T06:08:30.869Z,10.97
2023-05-19T06:09:31.813Z,10.92
2023-05-19T06:10:33.467Z,10.98
2023-05-19T06:11:33.333Z,10.87
2023-05-19T06:12:34.035Z,10.97
2023-05-19T06:13:34.571Z,11.07
2023-05-19T06:14:35.461Z,11.07
2023-05-19T06:15:36.411Z,11.19
2023-05-19T06:16:36.627Z,11.13
2023-05-19T06:17:36.990Z,11.16
2023-05-19T06:18:37.235Z,11.15
2023-05-19T06:19:37.598Z,11.16
2023-05-19T06:20:38.366Z,11.15
2023-05-19T06:21:39.059Z,11.22
2023-05-19T06:22:39.268Z,11.23
2023-05-19T06:23:40.039Z,11.22
2023-05-19T06:24:40.199Z,11.26
2023-05-19T06:25:40.591Z,11.16
2023-05-19T06:26:41.407Z,11.05
2023-05-19T06:27:41.956Z,11.01
2023-05-19T06:28:42.659Z,11.02
2023-05-19T06:29:43.571Z,11.1
2023-05-19T06:30:44.063Z,11.15
2023-05-19T06:31:44.796Z,11.2
2023-05-19T06:32:44.848Z,11.19
2023-05-19T06:33:45.882Z,11.3
2023-05-19T06:34:46.677Z,11.33
2023-05-19T06:35:46.974Z,11.35
2023-05-19T06:36:47.458Z,11.48
2023-05-19T06:37:47.941Z,11.52
2023-05-19T06:38:48.773Z,11.59
2023-05-19T06:39:49.087Z,11.7
2023-05-19T06:40:49.775Z,11.67
2023-05-19T06:41:50.258Z,11.71
2023-05-19T06:42:50.774Z,11.6
2023-05-19T06:43:51.316Z,11.59
2023-05-19T06:44:52.034Z,11.65
2023-05-19T06:45:52.624Z,11.65
2023-05-19T06:46:53.166Z,11.67
2023-05-19T06:47:53.610Z,11.51
2023-05-19T06:48:54.300Z,11.6
2023-05-19T06:49:55.064Z,11.59
2023-05-19T06:50:56.080Z,11.58
2023-05-19T06:51:56.814Z,11.56
2023-05-19T06:52:57.582Z,11.56
2023-05-19T06:53:58.326Z,11.56
2023-05-19T06:54:58.462Z,11.55
2023-05-19T06:56:06.330Z,11.63
2023-05-19T06:57:07.213Z,11.55
2023-05-19T06:58:08.205Z,11.55
2023-05-19T06:59:08.280Z,11.48
2023-05-19T07:00:08.081Z,11.55
2023-05-19T07:01:09.102Z,11.38
2023-05-19T07:02:08.959Z,11.41
2023-05-19T07:03:10.298Z,11.37
2023-05-19T07:04:11.064Z,11.31
2023-05-19T07:05:11.070Z,11.3
2023-05-19T07:06:13.752Z,11.3
2023-05-19T07:08:13.280Z,11.4
2023-05-19T07:09:15.045Z,11.45
2023-05-19T07:10:15.153Z,11.52
2023-05-19T07:11:15.245Z,11.52
2023-05-19T07:12:15.765Z,11.59
2023-05-19T07:13:16.065Z,11.56
2023-05-19T07:14:16.586Z,11.6
2023-05-19T07:15:17.102Z,11.68
2023-05-19T07:16:18.488Z,11.77
2023-05-19T07:17:18.554Z,11.73
2023-05-19T07:18:18.535Z,11.71
2023-05-19T07:19:19.719Z,11.74
2023-05-19T07:20:19.896Z,11.65
2023-05-19T07:21:20.451Z,11.74
2023-05-19T07:22:20.565Z,11.7
2023-05-19T07:23:22.979Z,11.68
2023-05-19T07:25:21.982Z,11.6
2023-05-19T07:26:22.634Z,11.77
2023-05-19T07:27:23.405Z,11.63
2023-05-19T07:28:23.890Z,11.56
2023-05-19T07:29:24.588Z,11.65
2023-05-19T07:30:25.787Z,11.71
2023-05-19T07:31:25.851Z,11.73
2023-05-19T07:32:26.820Z,11.8
2023-05-19T07:33:26.726Z,11.81
2023-05-19T07:34:27.633Z,11.88
2023-05-19T07:35:28.424Z,11.91
2023-05-19T07:36:28.998Z,11.93
2023-05-19T07:37:29.915Z,11.91
2023-05-19T07:38:30.014Z,12.03
2023-05-19T07:39:31.126Z,12.17
2023-05-19T07:40:31.595Z,12.18
2023-05-19T07:41:31.510Z,12.2
2023-05-19T07:42:31.645Z,12.2
2023-05-19T07:43:32.356Z,12.26
2023-05-19T07:44:32.881Z,12.26
2023-05-19T07:45:33.655Z,12.37
2023-05-19T07:46:35.014Z,12.37
2023-05-19T07:47:34.816Z,12.37
2023-05-19T07:48:35.543Z,12.35
2023-05-19T07:49:36.678Z,12.35
2023-05-19T07:50:36.956Z,12.36
2023-05-19T07:51:37.031Z,12.37
2023-05-19T07:52:37.543Z,12.44
2023-05-19T07:53:38.052Z,12.37
2023-05-19T07:54:38.668Z,12.35
2023-05-19T07:55:38.661Z,12.44
2023-05-19T07:56:39.161Z,12.36
2023-05-19T07:57:40.123Z,12.44
2023-05-19T07:58:40.621Z,12.47
2023-05-19T07:59:41.128Z,12.5
2023-05-19T08:00:42.249Z,12.55
2023-05-19T08:01:42.773Z,12.5
2023-05-19T08:02:43.684Z,12.57
2023-05-19T08:03:44.300Z,12.57
2023-05-19T08:04:44.686Z,12.53
2023-05-19T08:05:44.894Z,12.63
2023-05-19T08:06:45.539Z,12.61
2023-05-19T08:07:45.798Z,12.68
2023-05-19T08:08:46.323Z,12.78
2023-05-19T08:09:47.537Z,12.66
2023-05-19T08:10:47.734Z,12.68
2023-05-19T08:11:48.457Z,12.76
2023-05-19T08:12:49.170Z,12.81
2023-05-19T08:13:49.858Z,12.81
2023-05-19T08:14:50.596Z,12.75
2023-05-19T08:15:51.311Z,12.83
2023-05-19T08:16:52.050Z,12.76
2023-05-19T08:17:53.118Z,12.87
2023-05-19T08:18:53.679Z,12.86
2023-05-19T08:19:54.714Z,12.81
2023-05-19T08:20:54.873Z,12.91
2023-05-19T08:21:55.710Z,12.81
2023-05-19T08:22:56.654Z,12.78
2023-05-19T08:23:57.471Z,12.7
2023-05-19T08:24:57.894Z,12.78
2023-05-19T08:25:58.691Z,12.62
2023-05-19T08:26:59.123Z,12.76
2023-05-19T08:28:00.058Z,12.76
2023-05-19T08:29:00.580Z,12.86
2023-05-19T08:30:01.145Z,12.76
2023-05-19T08:31:02.185Z,12.8
2023-05-19T08:32:02.197Z,12.83
2023-05-19T08:33:02.907Z,12.8
2023-05-19T08:34:03.572Z,12.8
2023-05-19T08:35:04.482Z,12.81
2023-05-19T08:36:04.968Z,12.81
2023-05-19T08:37:05.664Z,12.84
2023-05-19T08:38:06.357Z,12.76
2023-05-19T08:39:07.270Z,12.83
2023-05-19T08:40:08.217Z,12.88
2023-05-19T08:41:08.191Z,12.83
2023-05-19T08:42:09.076Z,12.81
2023-05-19T08:43:09.986Z,12.72
2023-05-19T08:44:10.089Z,12.63
2023-05-19T08:45:10.751Z,12.69
2023-05-19T08:46:11.474Z,12.62
2023-05-19T08:47:11.986Z,12.69
2023-05-19T08:48:12.402Z,12.65
2023-05-19T08:49:13.460Z,12.53
2023-05-19T08:50:13.933Z,12.57
2023-05-19T08:51:14.242Z,12.54
2023-05-19T08:52:14.934Z,12.51
2023-05-19T08:53:34.890Z,12.54
2023-05-19T08:55:17.417Z,12.39
2023-05-19T08:56:18.374Z,12.43
2023-05-19T08:57:18.658Z,12.39
2023-05-19T08:58:18.766Z,12.43
2023-05-19T08:59:19.665Z,12.33
2023-05-19T09:00:20.784Z,12.37
2023-05-19T09:01:21.842Z,12.33
2023-05-19T09:02:21.892Z,12.35
2023-05-19T09:03:29.883Z,12.36
2023-05-19T09:05:24.159Z,12.48
2023-05-19T09:06:24.553Z,12.4
2023-05-19T09:07:25.609Z,12.45
2023-05-19T09:08:25.725Z,12.43
2023-05-19T09:09:26.499Z,12.36
2023-05-19T09:10:29.629Z,12.33
2023-05-19T09:11:27.534Z,12.32
2023-05-19T09:12:28.540Z,12.35
2023-05-19T09:13:29.043Z,12.35
2023-05-19T09:14:29.778Z,12.35
2023-05-19T09:15:30.614Z,12.44
2023-05-19T09:16:33.750Z,12.36
2023-05-19T09:18:32.560Z,12.45
2023-05-19T09:19:33.500Z,12.44
2023-05-19T09:20:33.476Z,12.44
2023-05-19T09:21:34.183Z,12.53
2023-05-19T09:22:34.894Z,12.45
2023-05-19T09:23:35.797Z,12.51
2023-05-19T09:24:36.503Z,12.47
2023-05-19T09:25:37.010Z,12.57
2023-05-19T09:26:37.028Z,12.53
2023-05-19T09:27:37.635Z,12.57
2023-05-19T09:28:38.667Z,12.58
2023-05-19T09:29:38.792Z,12.66
2023-05-19T09:30:39.274Z,12.65
2023-05-19T09:31:40.466Z,12.68
2023-05-19T09:32:40.761Z,12.8
2023-05-19T09:33:45.741Z,12.78
2023-05-19T09:34:41.925Z,12.9
2023-05-19T09:35:42.925Z,12.86
2023-05-19T09:36:43.030Z,13.01
2023-05-19T09:37:43.182Z,13.08
2023-05-19T09:38:43.824Z,13.13
2023-05-19T09:39:44.534Z,13.12
2023-05-19T09:40:45.595Z,13.26
2023-05-19T09:41:45.505Z,13.2
2023-05-19T09:42:46.399Z,13.33
2023-05-19T09:43:47.097Z,13.45
2023-05-19T09:44:47.565Z,13.55
2023-05-19T09:45:48.562Z,13.76
2023-05-19T09:46:48.641Z,13.85
2023-05-19T09:47:49.654Z,13.91
2023-05-19T09:48:50.479Z,14.15
2023-05-19T09:49:50.788Z,14.33
2023-05-19T09:50:51.912Z,14.37
2023-05-19T09:51:51.676Z,14.62
2023-05-19T09:52:52.802Z,14.7
2023-05-19T09:53:53.515Z,14.85
2023-05-19T09:54:54.554Z,14.74
2023-05-19T09:55:54.577Z,14.73
2023-05-19T09:56:55.758Z,14.58
2023-05-19T09:57:56.319Z,14.68
2023-05-19T09:58:57.060Z,14.81
2023-05-19T09:59:57.637Z,14.9
2023-05-19T10:00:58.417Z,15
2023-05-19T10:01:59.349Z,15.18
2023-05-19T10:03:00.431Z,15.39
2023-05-19T10:04:00.673Z,15.5
2023-05-19T10:05:01.214Z,15.73
2023-05-19T10:06:01.554Z,15.67
2023-05-19T10:07:01.346Z,15.72
2023-05-19T10:08:01.993Z,15.78
2023-05-19T10:09:03.146Z,15.78
2023-05-19T10:10:04.383Z,15.91
2023-05-19T10:11:04.801Z,16.32
2023-05-19T10:12:05.730Z,16.4
2023-05-19T10:13:06.274Z,16.39
2023-05-19T10:14:06.836Z,16.43
2023-05-19T10:15:07.309Z,16.55
2023-05-19T10:16:08.385Z,16.58
2023-05-19T10:17:08.355Z,16.51
2023-05-19T10:18:08.725Z,16.5
2023-05-19T10:19:09.655Z,16.37
2023-05-19T10:20:09.480Z,16.34
2023-05-19T10:21:10.674Z,16.1
2023-05-19T10:22:10.568Z,16.17
2023-05-19T10:23:11.341Z,16.08
2023-05-19T10:24:13.402Z,16.08
2023-05-19T10:25:11.975Z,16.08
2023-05-19T10:26:12.968Z,16.06
2023-05-19T10:27:12.882Z,15.91
2023-05-19T10:28:13.081Z,15.99
2023-05-19T10:29:14.130Z,15.9
2023-05-19T10:30:17.432Z,15.81
2023-05-19T10:32:15.171Z,15.73
2023-05-19T10:33:15.684Z,15.62
2023-05-19T10:34:15.687Z,15.52
2023-05-19T10:35:16.528Z,15.55
2023-05-19T10:36:17.092Z,15.52
2023-05-19T10:37:18.597Z,15.32
2023-05-19T10:38:18.825Z,15.35
2023-05-19T10:39:19.537Z,15.3
2023-05-19T10:40:20.787Z,15.35
2023-05-19T10:41:21.105Z,15.35
2023-05-19T10:42:21.817Z,15.33
2023-05-19T10:43:22.108Z,15.43
2023-05-19T10:44:22.648Z,15.44
2023-05-19T10:45:22.609Z,15.44
2023-05-19T10:46:22.879Z,15.43
2023-05-19T10:47:23.165Z,15.45
2023-05-19T10:48:23.501Z,15.45
2023-05-19T10:49:23.686Z,15.52
2023-05-19T10:50:23.593Z,15.52
2023-05-19T10:51:24.744Z,15.59
2023-05-19T10:52:24.859Z,15.73
2023-05-19T10:53:25.758Z,15.76
2023-05-19T10:54:26.487Z,15.76
2023-05-19T10:55:27.193Z,15.85
2023-05-19T10:56:28.296Z,15.87
2023-05-19T10:57:28.390Z,15.91
2023-05-19T10:58:28.839Z,15.94
2023-05-19T10:59:30.107Z,15.9
2023-05-19T11:00:30.046Z,15.88
2023-05-19T11:01:31.018Z,15.84
2023-05-19T11:02:30.919Z,15.8
2023-05-19T11:03:31.509Z,15.83
2023-05-19T11:04:32.343Z,15.73
2023-05-19T11:05:33.809Z,15.7
2023-05-19T11:06:34.002Z,15.63
2023-05-19T11:07:34.568Z,15.57
2023-05-19T11:08:35.173Z,15.57
2023-05-19T11:09:45.951Z,15.54
2023-05-19T11:11:37.307Z,15.57
2023-05-19T11:12:37.531Z,15.5
2023-05-19T11:13:38.047Z,15.41
2023-05-19T11:14:38.922Z,15.45
2023-05-19T11:15:40.116Z,15.29
2023-05-19T11:16:39.798Z,15.3
2023-05-19T11:17:41.029Z,15.32
2023-05-19T11:18:41.732Z,15.44
2023-05-19T11:19:42.529Z,15.43
2023-05-19T11:20:42.949Z,15.5
2023-05-19T11:21:43.948Z,15.45
2023-05-19T11:22:44.849Z,15.48
2023-05-19T11:23:46.104Z,15.32
2023-05-19T11:24:46.484Z,15.3
2023-05-19T11:25:47.313Z,15.25
2023-05-19T11:26:48.094Z,15.22
2023-05-19T11:27:47.816Z,15.08
2023-05-19T11:28:48.635Z,15.15
2023-05-19T11:29:49.160Z,15.15
2023-05-19T11:30:49.715Z,15.02
2023-05-19T11:31:49.749Z,15.04
2023-05-19T11:32:50.998Z,14.94
2023-05-19T11:33:50.576Z,15
2023-05-19T11:34:51.503Z,14.94
2023-05-19T11:35:52.308Z,14.89
2023-05-19T11:36:53.059Z,14.82
2023-05-19T11:37:53.644Z,14.86
2023-05-19T11:38:54.643Z,14.92
2023-05-19T11:39:55.355Z,15
2023-05-19T11:40:55.855Z,14.96
2023-05-19T11:41:57.036Z,15
2023-05-19T11:42:57.957Z,15
2023-05-19T11:43:57.898Z,15.07
2023-05-19T11:44:58.458Z,15.04
2023-05-19T11:45:59.506Z,15.18
2023-05-19T11:47:00.398Z,15.17
2023-05-19T11:48:08.624Z,15.17
2023-05-19T11:50:03.019Z,15.18
2023-05-19T11:51:02.807Z,15.18
2023-05-19T11:52:03.323Z,15.14
2023-05-19T11:53:04.736Z,15.08
2023-05-19T11:54:05.232Z,15.12
2023-05-19T11:55:05.597Z,15.14
2023-05-19T11:56:06.383Z,15.17
2023-05-19T11:57:06.559Z,15.22
2023-05-19T11:58:10.463Z,15.14
2023-05-19T12:00:07.827Z,15.19
2023-05-19T12:01:08.411Z,15.22
2023-05-19T12:02:09.129Z,15.25
2023-05-19T12:03:10.606Z,15.25
2023-05-19T12:04:11.041Z,15.17
2023-05-19T12:05:11.297Z,15.12
2023-05-19T12:06:11.460Z,15.08
2023-05-19T12:07:11.925Z,15.04
2023-05-19T12:08:12.942Z,15.04
2023-05-19T12:09:14.127Z,15.07
2023-05-19T12:10:15.038Z,15.08
2023-05-19T12:11:18.144Z,15.05
2023-05-19T12:12:17.112Z,15.04
2023-05-19T12:13:17.131Z,15.05
2023-05-19T12:14:17.733Z,15.05
2023-05-19T12:15:18.407Z,15.05
2023-05-19T12:16:19.219Z,15
2023-05-19T12:17:20.169Z,14.96
2023-05-19T12:18:20.250Z,15.02
2023-05-19T12:19:21.283Z,15.05
2023-05-19T12:20:22.107Z,15.04
2023-05-19T12:21:22.269Z,15.07
2023-05-19T12:22:23.216Z,15.04
2023-05-19T12:23:24.133Z,15.02
2023-05-19T12:24:24.818Z,15.11
2023-05-19T12:25:25.913Z,15.08
2023-05-19T12:26:26.525Z,15.04
2023-05-19T12:27:27.513Z,15.02
2023-05-19T12:28:27.507Z,15.08
2023-05-19T12:29:28.049Z,15.11
2023-05-19T12:30:28.559Z,15.17
2023-05-19T12:31:29.465Z,15.1
2023-05-19T12:32:29.621Z,15.15
2023-05-19T12:33:29.923Z,15.17
2023-05-19T12:34:30.409Z,15.14
2023-05-19T12:35:31.174Z,15.11
2023-05-19T12:36:32.016Z,15.1
2023-05-19T12:37:32.826Z,15
2023-05-19T12:38:33.738Z,15.14
2023-05-19T12:39:34.224Z,15.23
2023-05-19T12:40:36.374Z,15.22
2023-05-19T12:41:34.876Z,15.35
2023-05-19T12:42:35.532Z,15.25
2023-05-19T12:43:35.312Z,15.29
2023-05-19T12:44:35.808Z,15.26
2023-05-19T12:45:36.992Z,15.15
2023-05-19T12:46:37.612Z,15.19
2023-05-19T12:47:38.313Z,15.17
2023-05-19T12:48:38.522Z,15.12
2023-05-19T12:49:38.952Z,15.18
2023-05-19T12:50:40.632Z,15.12
2023-05-19T12:51:40.547Z,15.04
2023-05-19T12:52:41.073Z,15.08
2023-05-19T12:53:40.913Z,15.18
2023-05-19T12:54:41.929Z,15.07
2023-05-19T12:55:41.519Z,15.07
2023-05-19T12:56:42.148Z,15.11
2023-05-19T12:57:42.218Z,15.18
2023-05-19T12:58:42.893Z,15.14
2023-05-19T12:59:45.044Z,15.18
2023-05-19T13:00:45.832Z,15.22
2023-05-19T13:01:46.101Z,15.17
2023-05-19T13:02:47.214Z,15.19
2023-05-19T13:03:48.143Z,15.19
2023-05-19T13:04:48.371Z,15.22
2023-05-19T13:05:49.093Z,15.23
2023-05-19T13:06:49.887Z,15.17
2023-05-19T13:07:50.611Z,15.19
2023-05-19T13:08:50.500Z,15.14
2023-05-19T13:09:51.413Z,15.15
2023-05-19T13:10:52.144Z,15.14
2023-05-19T13:11:53.250Z,15.14
2023-05-19T13:12:54.023Z,15.04
2023-05-19T13:13:54.750Z,15.04
2023-05-19T13:14:56.340Z,15.1
2023-05-19T13:15:55.818Z,15.08
2023-05-19T13:16:56.600Z,15.04
2023-05-19T13:17:57.525Z,15.05
2023-05-19T13:18:59.870Z,15.08
2023-05-19T13:20:01.889Z,15.12
2023-05-19T13:21:02.735Z,15.17
2023-05-19T13:22:03.440Z,15.23